createdAt,value
2023-03-17T00:01:00.229Z,10.09
2023-03-17T00:06:04.866Z,10.00
2023-03-17T00:11:13.987Z,9.89
2023-03-17T00:16:22.406Z,9.88
2023-03-17T00:21:34.410Z,9.82
2023-03-17T00:26:37.116Z,9.78
2023-03-17T00:31:40.414Z,9.65
2023-03-17T00:36:46.437Z,9.59
2023-03-17T00:41:49.412Z,9.49
2023-03-17T00:46:53.520Z,9.50
2023-03-17T00:51:56.248Z,9.40
2023-03-17T00:56:59.004Z,9.27
2023-03-17T01:02:01.959Z,9.16
2023-03-17T01:07:05.221Z,9.16
2023-03-17T01:12:12.895Z,9.12
2023-03-17T01:17:18.482Z,9.07
2023-03-17T01:22:21.048Z,8.95
2023-03-17T01:27:24.374Z,8.83
2023-03-17T01:32:27.346Z,8.88
2023-03-17T01:37:29.967Z,8.88
2023-03-17T01:42:32.877Z,8.92
2023-03-17T01:47:36.506Z,8.85
2023-03-17T01:52:40.790Z,8.93
2023-03-17T01:57:54.768Z,9.07
2023-03-17T02:02:57.772Z,9.13
2023-03-17T02:08:00.570Z,9.19
2023-03-17T02:13:05.987Z,9.12
2023-03-17T02:18:10.239Z,9.10
2023-03-17T02:23:17.313Z,8.68
2023-03-17T02:28:26.245Z,8.45
2023-03-17T02:33:29.044Z,8.40
2023-03-17T02:38:32.063Z,8.42
2023-03-17T02:43:36.487Z,8.46
2023-03-17T02:48:40.785Z,8.33
2023-03-17T02:53:43.325Z,8.27
2023-03-17T02:58:45.773Z,8.29
2023-03-17T03:03:48.843Z,8.33
2023-03-17T03:08:52.229Z,8.35
2023-03-17T03:13:54.792Z,8.33
2023-03-17T03:18:57.780Z,8.30
2023-03-17T03:24:00.361Z,8.52
2023-03-17T03:29:04.378Z,8.59
2023-03-17T03:34:07.599Z,8.67
2023-03-17T03:39:11.904Z,8.62
2023-03-17T03:44:15.712Z,8.77
2023-03-17T03:49:18.359Z,8.89
2023-03-17T03:54:21.025Z,8.94
2023-03-17T03:59:23.669Z,9.15
2023-03-17T04:04:26.694Z,9.23
2023-03-17T04:09:29.307Z,9.47
2023-03-17T04:14:31.952Z,9.75
2023-03-17T04:19:34.468Z,10.02
2023-03-17T04:24:37.415Z,10.24
2023-03-17T04:29:40.027Z,10.46
2023-03-17T04:34:43.214Z,10.79
2023-03-17T04:39:45.860Z,11.12
2023-03-17T04:44:48.352Z,11.84
2023-03-17T04:49:51.050Z,12.10
2023-03-17T04:54:53.706Z,12.45
2023-03-17T04:59:57.849Z,12.89
2023-03-17T05:05:00.680Z,12.99
2023-03-17T05:10:03.526Z,13.31
2023-03-17T05:15:07.141Z,13.73
2023-03-17T05:20:11.024Z,14.08
2023-03-17T05:25:13.575Z,14.48
2023-03-17T05:30:17.222Z,14.53
2023-03-17T05:35:20.227Z,14.25
2023-03-17T05:40:24.677Z,13.52
2023-03-17T05:45:27.292Z,13.02
2023-03-17T05:50:31.184Z,12.78
2023-03-17T05:55:33.864Z,12.60
2023-03-17T06:00:38.035Z,12.39
2023-03-17T06:05:41.065Z,12.60
2023-03-17T06:10:43.835Z,13.33
2023-03-17T06:15:48.806Z,14.42
2023-03-17T06:20:51.863Z,15.23
2023-03-17T06:25:54.665Z,16.40
2023-03-17T06:30:57.311Z,16.66
2023-03-17T06:36:00.928Z,17.25
2023-03-17T06:41:03.772Z,17.70
2023-03-17T06:46:07.698Z,16.88
2023-03-17T06:51:10.501Z,16.90
2023-03-17T06:56:27.373Z,17.13
2023-03-17T07:01:32.560Z,17.39
2023-03-17T07:06:35.641Z,18.55
2023-03-17T07:11:38.723Z,18.56
2023-03-17T07:16:41.280Z,18.70
2023-03-17T07:21:45.991Z,18.73
2023-03-17T07:26:49.621Z,18.73
2023-03-17T07:31:52.344Z,17.96
2023-03-17T07:36:55.015Z,18.32
2023-03-17T07:41:57.543Z,19.17
2023-03-17T07:47:00.781Z,19.73
2023-03-17T07:52:03.514Z,19.70
2023-03-17T07:57:06.616Z,20.06
2023-03-17T08:02:16.755Z,20.33
2023-03-17T08:07:19.738Z,20.77
2023-03-17T08:12:22.382Z,21.37
2023-03-17T08:17:27.850Z,21.67
2023-03-17T08:22:30.574Z,21.05
2023-03-17T08:27:33.963Z,20.83
2023-03-17T08:32:37.304Z,20.85
2023-03-17T08:37:40.699Z,20.92
2023-03-17T08:42:45.001Z,20.72
2023-03-17T08:47:48.230Z,20.85
2023-03-17T08:52:52.054Z,21.85
2023-03-17T08:57:54.675Z,22.11
2023-03-17T09:02:58.394Z,22.30
2023-03-17T09:08:01.216Z,22.36
2023-03-17T09:13:04.578Z,22.39
2023-03-17T09:18:09.327Z,23.01
2023-03-17T09:23:14.457Z,22.49
2023-03-17T09:28:17.705Z,22.83
2023-03-17T09:33:23.034Z,22.55
2023-03-17T09:38:28.740Z,23.15
2023-03-17T09:43:55.894Z,23.06
2023-03-17T09:49:12.179Z,22.92
2023-03-17T09:54:28.399Z,23.88
2023-03-17T09:59:33.602Z,24.48
2023-03-17T10:04:37.442Z,24.39
2023-03-17T10:09:47.138Z,23.88
2023-03-17T10:15:01.129Z,23.25
2023-03-17T10:20:13.070Z,23.40
2023-03-17T10:25:18.011Z,23.56
2023-03-17T10:30:23.744Z,23.80
2023-03-17T10:35:26.752Z,23.48
2023-03-17T10:40:31.994Z,23.82
2023-03-17T10:45:40.955Z,23.79
2023-03-17T10:50:49.378Z,23.26
2023-03-17T10:55:53.662Z,23.01
2023-03-17T11:01:03.534Z,23.20
2023-03-17T11:06:13.300Z,23.46
2023-03-17T11:11:33.860Z,23.33
2023-03-17T11:16:39.311Z,23.66
2023-03-17T11:22:16.073Z,23.65
2023-03-17T11:27:35.233Z,22.74
2023-03-17T11:32:52.124Z,22.58
2023-03-17T11:38:22.389Z,22.07
2023-03-17T11:43:54.667Z,21.91
2023-03-17T11:49:05.362Z,21.76
2023-03-17T11:54:54.248Z,22.13
2023-03-17T12:00:31.945Z,21.82
2023-03-17T12:05:37.704Z,21.59
2023-03-17T12:10:48.028Z,21.44
2023-03-17T12:16:01.357Z,20.91
2023-03-17T12:21:23.698Z,20.69
2023-03-17T12:26:40.193Z,20.58
2023-03-17T12:32:09.069Z,20.09
2023-03-17T12:37:13.319Z,19.84
2023-03-17T12:42:31.084Z,19.51
2023-03-17T12:47:58.604Z,19.48
2023-03-17T12:53:06.151Z,19.04
2023-03-17T12:58:27.190Z,18.86
2023-03-17T13:03:34.947Z,18.75
2023-03-17T13:08:42.590Z,18.57
2023-03-17T13:14:15.736Z,18.59
2023-03-17T13:19:28.799Z,18.58
2023-03-17T13:24:40.949Z,18.54
2023-03-17T13:29:46.097Z,18.40
2023-03-17T13:35:02.583Z,18.22
2023-03-17T13:40:23.578Z,18.08
2023-03-17T13:45:48.976Z,17.90
2023-03-17T13:51:04.597Z,17.34
2023-03-17T13:56:49.358Z,16.82
2023-03-17T14:02:02.187Z,16.34
2023-03-17T14:07:16.438Z,16.05
2023-03-17T14:12:51.125Z,15.77
2023-03-17T14:18:03.604Z,15.48
2023-03-17T14:23:06.934Z,15.25
2023-03-17T14:28:16.980Z,15.05
2023-03-17T14:33:38.260Z,14.94
2023-03-17T14:38:48.824Z,14.73
2023-03-17T14:43:53.076Z,14.50
2023-03-17T14:49:17.017Z,14.41
2023-03-17T14:54:24.487Z,14.26
2023-03-17T14:59:37.942Z,14.12
2023-03-17T15:05:12.754Z,13.98
2023-03-17T15:10:26.174Z,13.94
2023-03-17T15:15:35.021Z,13.85
2023-03-17T15:20:39.548Z,13.76
2023-03-17T15:25:50.207Z,13.65
2023-03-17T15:30:56.719Z,13.54
2023-03-17T15:36:08.411Z,13.54
2023-03-17T15:41:13.713Z,13.52
2023-03-17T15:46:28.108Z,13.52
2023-03-17T15:51:31.415Z,13.45
2023-03-17T15:56:35.783Z,13.42
2023-03-17T16:01:39.563Z,13.31
2023-03-17T16:06:43.058Z,13.24
2023-03-17T16:11:47.873Z,13.25
2023-03-17T16:16:53.080Z,13.25
2023-03-17T16:21:56.629Z,13.31
2023-03-17T16:26:59.432Z,13.20
2023-03-17T16:32:02.852Z,13.24
2023-03-17T16:37:05.984Z,13.23
2023-03-17T16:42:24.763Z,13.26
2023-03-17T16:47:28.348Z,13.25
2023-03-17T16:52:31.583Z,13.25
2023-03-17T16:57:34.844Z,13.25
2023-03-17T17:02:37.465Z,13.23
2023-03-17T17:07:40.021Z,13.15
2023-03-17T17:12:43.449Z,13.24
2023-03-17T17:17:51.175Z,13.27
2023-03-17T17:22:53.768Z,13.43
2023-03-17T17:27:57.948Z,13.49
2023-03-17T17:33:01.166Z,13.37
2023-03-17T17:38:04.501Z,13.28
2023-03-17T17:43:07.076Z,13.20
2023-03-17T17:48:11.298Z,13.20
2023-03-17T17:53:15.040Z,13.18
2023-03-17T17:58:22.440Z,13.15
2023-03-17T18:03:26.566Z,13.13
2023-03-17T18:08:29.444Z,13.13
2023-03-17T18:13:33.011Z,13.14
2023-03-17T18:18:40.748Z,13.01
2023-03-17T18:23:47.567Z,12.79
2023-03-17T18:28:51.083Z,12.69
2023-03-17T18:33:58.142Z,12.59
2023-03-17T18:39:00.781Z,12.48
2023-03-17T18:44:03.724Z,12.40
2023-03-17T18:49:07.175Z,12.38
2023-03-17T18:54:10.148Z,12.28
2023-03-17T18:59:12.835Z,12.16
2023-03-17T19:04:15.830Z,12.19
2023-03-17T19:09:18.633Z,12.08
2023-03-17T19:14:21.245Z,11.95
2023-03-17T19:19:24.669Z,11.84
2023-03-17T19:24:27.806Z,11.82
2023-03-17T19:29:30.472Z,11.82
2023-03-17T19:34:32.964Z,11.82
2023-03-17T19:39:37.827Z,11.89
2023-03-17T19:44:40.835Z,11.98
2023-03-17T19:49:44.289Z,12.03
2023-03-17T19:54:46.920Z,12.04
2023-03-17T19:59:50.739Z,12.13
2023-03-17T20:04:53.786Z,12.22
2023-03-17T20:09:56.626Z,12.24
2023-03-17T20:15:01.676Z,12.24
2023-03-17T20:20:07.907Z,12.25
2023-03-17T20:25:10.746Z,12.33
2023-03-17T20:30:13.624Z,12.29
2023-03-17T20:35:16.292Z,12.23
2023-03-17T20:40:19.154Z,12.13
2023-03-17T20:45:22.146Z,12.13
2023-03-17T20:50:25.468Z,12.16
2023-03-17T20:55:28.527Z,12.14
2023-03-17T21:00:32.147Z,12.04
2023-03-17T21:05:35.840Z,11.94
2023-03-17T21:10:38.504Z,11.88
2023-03-17T21:15:41.603Z,11.83
2023-03-17T21:20:44.157Z,11.80
2023-03-17T21:25:46.698Z,11.81
2023-03-17T21:30:49.819Z,11.90
2023-03-17T21:35:52.461Z,12.03
2023-03-17T21:40:56.150Z,12.08
2023-03-17T21:45:58.857Z,12.17
2023-03-17T21:51:01.448Z,12.06
2023-03-17T21:56:04.358Z,11.98
2023-03-17T22:01:07.042Z,12.00
2023-03-17T22:06:11.560Z,11.93
2023-03-17T22:11:17.924Z,11.76
2023-03-17T22:16:21.897Z,11.78
2023-03-17T22:21:25.302Z,11.79
2023-03-17T22:26:28.762Z,11.77
2023-03-17T22:31:31.676Z,11.83
2023-03-17T22:36:34.325Z,11.65
2023-03-17T22:41:38.202Z,11.50
2023-03-17T22:46:43.933Z,11.44
2023-03-17T22:51:48.222Z,11.34
2023-03-17T22:56:51.040Z,11.20
2023-03-17T23:01:53.452Z,11.13
2023-03-17T23:06:56.633Z,11.06
2023-03-17T23:11:59.946Z,10.83
2023-03-17T23:17:02.565Z,10.70
2023-03-17T23:22:05.205Z,10.74
2023-03-17T23:27:08.312Z,10.66
2023-03-17T23:32:12.710Z,10.87
2023-03-17T23:37:15.217Z,10.87
2023-03-17T23:42:18.417Z,10.90
2023-03-17T23:47:22.807Z,10.96
2023-03-17T23:52:25.891Z,10.87
2023-03-17T23:57:28.422Z,10.87
